Time;durP1;ratioP1;P1;durP2;ratioP2;P2;SDS_P1;SDS_P2;PMS_P1;PMS_P2;Temp;Humidity;BMP_temperature;BMP_pressure;BME280_temperature;BME280_humidity;BME280_pressure;Samples;Min_cycle;Max_cycle;Signal;HPM_P1;HPM_P2
2023/10/08 00:04:10;;;;;;;;;;;;;;;21.36;46.87;96445.03;10432727;28;2182;-58
2023/10/08 00:09:15;;;;;;;;;;;;;;;21.36;46.81;96437.13;10428310;28;1981;-59
2023/10/08 00:14:21;;;;;;;;;;;;;;;21.34;47.09;96426.84;10426832;28;2166;-59
2023/10/08 00:19:21;;;;;;;;;;;;;;;21.34;47.11;96418.91;10433313;28;2148;-59
2023/10/08 00:24:26;;;;;;;;;;;;;;;21.35;46.78;96435.53;10442256;28;2068;-59
2023/10/08 00:29:27;;;;;;;;;;;;;;;21.35;46.93;96425.00;10434963;28;2018;-59
2023/10/08 00:34:27;;;;;;;;;;;;;;;21.34;46.80;96421.56;10442969;28;3735;-61
2023/10/08 00:39:33;;;;;;;;;;;;;;;21.33;46.68;96413.91;10440322;28;2120;-59
2023/10/08 00:44:51;;;;;;;;;;;;;;;21.33;46.75;96413.91;10437557;28;1983;-59
2023/10/08 00:50:03;;;;;;;;;;;;;;;21.32;46.65;96414.97;10440862;28;2228;-60
2023/10/08 01:00:06;;;;;;;;;;;;;;;21.31;46.95;96400.19;10441789;28;2063;-58
2023/10/08 01:05:09;;;;;;;;;;;;;;;21.31;46.51;96402.84;10442023;28;1923;-59
2023/10/08 01:10:10;;;;;;;;;;;;;;;21.31;46.54;96400.19;10435702;28;2187;-58
2023/10/08 01:15:16;;;;;;;;;;;;;;;21.30;46.60;96398.59;10436194;28;2684;-58
2023/10/08 01:20:36;;;;;;;;;;;;;;;21.30;46.73;96401.25;10436885;28;1962;-58
2023/10/08 01:25:37;;;;;;;;;;;;;;;21.28;46.89;96400.72;10436453;28;2003;-59
2023/10/08 01:30:41;;;;;;;;;;;;;;;21.29;46.54;96394.41;10433635;28;2024;-59
2023/10/08 01:35:41;;;;;;;;;;;;;;;21.28;46.48;96398.88;10437230;28;2220;-59
2023/10/08 01:40:41;;;;;;;;;;;;;;;21.28;46.65;96392.81;10438266;28;4511;-60
2023/10/08 01:45:42;;;;;;;;;;;;;;;21.27;46.43;96393.88;10436648;28;1989;-59
2023/10/08 01:50:45;;;;;;;;;;;;;;;21.28;46.42;96393.59;10434888;28;1948;-60
2023/10/08 01:55:48;;;;;;;;;;;;;;;21.28;46.19;96392.81;10436165;28;2223;-59
2023/10/08 02:00:49;;;;;;;;;;;;;;;21.26;46.36;96384.38;10438826;28;2784;-60
2023/10/08 02:05:53;;;;;;;;;;;;;;;21.26;46.29;96379.09;10436820;28;2007;-60
2023/10/08 02:10:53;;;;;;;;;;;;;;;21.26;46.19;96381.72;10438629;28;2002;-60
2023/10/08 02:15:53;;;;;;;;;;;;;;;21.26;46.49;96384.38;10434060;28;2054;-60
2023/10/08 02:20:54;;;;;;;;;;;;;;;21.25;46.16;96382.75;10433502;28;1977;-60
2023/10/08 02:25:54;;;;;;;;;;;;;;;21.25;46.50;96374.84;10439351;28;1947;-59
2023/10/08 02:30:55;;;;;;;;;;;;;;;21.24;46.39;96368.00;10435396;28;1955;-59
2023/10/08 02:35:55;;;;;;;;;;;;;;;21.24;46.51;96371.44;10436804;28;2055;-60
2023/10/08 02:40:56;;;;;;;;;;;;;;;21.24;46.15;96371.44;10436031;28;4622;-59
2023/10/08 02:45:59;;;;;;;;;;;;;;;21.24;46.31;96366.19;10438293;28;2514;-60
2023/10/08 02:51:10;;;;;;;;;;;;;;;21.24;46.56;96365.38;10433439;28;1994;-60
2023/10/08 02:56:13;;;;;;;;;;;;;;;21.24;46.33;96349.56;10433945;28;1974;-60
2023/10/08 03:01:14;;;;;;;;;;;;;;;21.24;46.09;96354.84;10435012;28;1926;-60
2023/10/08 03:06:15;;;;;;;;;;;;;;;21.23;46.49;96342.69;10433700;28;2094;-60
2023/10/08 03:11:18;;;;;;;;;;;;;;;21.22;46.07;96349.84;10435218;28;1953;-60
2023/10/08 03:16:21;;;;;;;;;;;;;;;21.21;46.00;96350.88;10438512;28;2033;-60
2023/10/08 03:21:33;;;;;;;;;;;;;;;21.21;46.17;96345.59;10437716;28;2052;-60
2023/10/08 03:26:33;;;;;;;;;;;;;;;21.21;46.26;96345.59;10431619;28;1945;-59
2023/10/08 03:36:47;;;;;;;;;;;;;;;21.21;46.15;96336.88;10434287;28;2130;-59
2023/10/08 03:42:07;;;;;;;;;;;;;;;21.22;46.13;96341.13;10431744;28;4547;-59
2023/10/08 03:47:10;;;;;;;;;;;;;;;21.20;46.05;96344.03;10433268;28;1923;-59
2023/10/08 03:52:12;;;;;;;;;;;;;;;21.19;45.98;96331.88;10436979;28;2240;-59
2023/10/08 03:57:14;;;;;;;;;;;;;;;21.21;46.03;96326.34;10435534;28;1965;-59
2023/10/08 04:02:14;;;;;;;;;;;;;;;21.21;45.99;96334.25;10445252;28;1983;-58
2023/10/08 04:07:28;;;;;;;;;;;;;;;21.19;46.34;96337.16;10442801;28;2006;-59
2023/10/08 04:12:28;;;;;;;;;;;;;;;21.20;45.93;96340.59;10442822;28;1985;-59
2023/10/08 04:17:29;;;;;;;;;;;;;;;21.19;45.98;96346.91;10426446;28;2564;-59
2023/10/08 04:22:29;;;;;;;;;;;;;;;21.19;45.97;96339.00;10440891;28;2152;-58
2023/10/08 04:27:33;;;;;;;;;;;;;;;21.18;46.01;96346.13;10441162;28;1931;-59
2023/10/08 04:32:34;;;;;;;;;;;;;;;21.20;46.21;96343.22;10442584;28;2035;-59
2023/10/08 04:37:34;;;;;;;;;;;;;;;21.18;45.94;96335.59;10444016;28;1926;-59
2023/10/08 04:42:37;;;;;;;;;;;;;;;21.18;46.11;96335.59;10438986;28;4708;-58
2023/10/08 04:47:41;;;;;;;;;;;;;;;21.18;46.27;96330.31;10442068;28;1983;-59
2023/10/08 04:52:47;;;;;;;;;;;;;;;21.19;46.12;96336.34;10445967;28;1975;-59
2023/10/08 04:57:49;;;;;;;;;;;;;;;21.18;46.04;96335.59;10444415;28;1911;-59
2023/10/08 05:02:54;;;;;;;;;;;;;;;21.18;46.11;96342.69;10445410;28;2359;-59
2023/10/08 05:08:00;;;;;;;;;;;;;;;21.18;46.16;96356.69;10438482;28;1961;-58
2023/10/08 05:13:14;;;;;;;;;;;;;;;21.17;46.32;96349.81;10437031;28;1948;-59
2023/10/08 05:18:37;;;;;;;;;;;;;;;21.18;45.97;96359.31;10441446;28;1975;-59
2023/10/08 05:23:53;;;;;;;;;;;;;;;21.17;46.03;96378.00;10441322;28;1983;-58
2023/10/08 05:29:29;;;;;;;;;;;;;;;21.17;46.33;96385.91;10439155;28;2255;-59
2023/10/08 05:34:33;;;;;;;;;;;;;;;21.17;45.99;96394.63;10441979;28;1959;-58
2023/10/08 05:44:46;;;;;;;;;;;;;;;21.17;46.05;96412.28;10440928;28;4680;-58
2023/10/08 05:50:28;;;;;;;;;;;;;;;21.18;46.28;96432.34;10458121;28;2507;-58
2023/10/08 05:55:22;;;;;;;;;;;;;;;21.18;46.19;96446.31;10439075;28;1991;-58
2023/10/08 06:05:43;;;;;;;;;;;;;;;21.18;46.23;96466.63;10435801;28;1956;-58
2023/10/08 06:10:46;;;;;;;;;;;;;;;21.16;46.17;96464.25;10438326;28;1930;-57
2023/10/08 06:21:00;;;;;;;;;;;;;;;21.17;46.42;96475.56;10438859;28;1920;-58
2023/10/08 06:26:05;;;;;;;;;;;;;;;21.17;46.19;96472.94;10435249;28;1996;-58
2023/10/08 06:31:11;;;;;;;;;;;;;;;21.18;46.31;96477.16;10435961;28;1979;-59
2023/10/08 06:41:17;;;;;;;;;;;;;;;21.19;46.54;96462.91;10435889;28;4618;-60
2023/10/08 06:46:22;;;;;;;;;;;;;;;21.18;46.47;96458.72;10435780;28;1978;-59
2023/10/08 06:51:25;;;;;;;;;;;;;;;21.19;46.51;96453.16;10431990;28;2086;-60
2023/10/08 06:56:26;;;;;;;;;;;;;;;21.19;46.30;96468.97;10439336;28;2013;-59
2023/10/08 07:01:29;;;;;;;;;;;;;;;21.19;46.09;96457.63;10436278;28;1974;-60
2023/10/08 07:06:33;;;;;;;;;;;;;;;21.19;46.58;96468.97;10438910;28;2104;-59
2023/10/08 07:11:34;;;;;;;;;;;;;;;21.20;46.74;96464.50;10441368;28;1670;-59
2023/10/08 07:16:35;;;;;;;;;;;;;;;21.20;46.97;96472.41;10438923;28;1985;-59
2023/10/08 07:21:44;;;;;;;;;;;;;;;21.21;46.93;96472.16;10442816;28;2731;-59
2023/10/08 07:26:47;;;;;;;;;;;;;;;21.22;46.78;96463.22;10435635;28;1496;-60
2023/10/08 07:31:52;;;;;;;;;;;;;;;21.22;46.92;96463.22;10439333;28;1481;-59
2023/10/08 07:36:54;;;;;;;;;;;;;;;21.22;47.29;96457.94;10439326;28;1906;-57
2023/10/08 07:41:55;;;;;;;;;;;;;;;21.23;47.25;96462.13;10435399;28;4670;-59
2023/10/08 07:46:55;;;;;;;;;;;;;;;21.23;47.37;96459.50;10439980;28;1480;-59
2023/10/08 07:51:55;;;;;;;;;;;;;;;21.23;47.43;96464.78;10438985;28;1881;-59
2023/10/08 08:02:17;;;;;;;;;;;;;;;21.24;46.91;96482.19;10437084;28;1534;-59
2023/10/08 08:07:17;;;;;;;;;;;;;;;21.24;46.91;96479.56;10435139;28;2523;-59
2023/10/08 08:12:19;;;;;;;;;;;;;;;21.25;46.79;96475.84;10438400;28;1607;-59
2023/10/08 08:17:19;;;;;;;;;;;;;;;21.25;46.79;96475.84;10433852;28;1976;-59
2023/10/08 08:22:23;;;;;;;;;;;;;;;21.25;46.96;96473.22;10434252;28;1933;-59
2023/10/08 08:27:31;;;;;;;;;;;;;;;21.25;47.34;96485.59;10437541;28;1610;-59
2023/10/08 08:32:34;;;;;;;;;;;;;;;21.25;46.84;96483.75;10438135;28;1665;-59
2023/10/08 08:37:40;;;;;;;;;;;;;;;21.26;47.02;96484.56;10439831;28;1980;-59
2023/10/08 08:42:43;;;;;;;;;;;;;;;21.25;47.27;96496.94;10438573;28;4700;-59
2023/10/08 08:47:44;;;;;;;;;;;;;;;21.25;46.96;96494.31;10446015;28;1516;-59
2023/10/08 08:52:45;;;;;;;;;;;;;;;21.26;46.90;96489.84;10440959;28;2679;-59
2023/10/08 08:57:50;;;;;;;;;;;;;;;21.26;47.21;96476.66;10447127;28;1968;-59
2023/10/08 09:02:50;;;;;;;;;;;;;;;21.25;46.87;96467.13;10443611;28;1567;-59
2023/10/08 09:07:56;;;;;;;;;;;;;;;21.25;47.16;96462.66;10446883;28;1724;-59
2023/10/08 09:13:00;;;;;;;;;;;;;;;21.26;47.09;96466.09;10442222;28;1550;-59
2023/10/08 09:18:00;;;;;;;;;;;;;;;21.26;47.19;96476.66;10442011;28;2035;-56
2023/10/08 09:23:07;;;;;;;;;;;;;;;21.27;47.07;96491.44;10441336;28;1912;-59
2023/10/08 09:28:08;;;;;;;;;;;;;;;21.26;46.87;96505.66;10442365;28;1605;-59
2023/10/08 09:33:09;;;;;;;;;;;;;;;21.28;47.03;96514.09;10445947;28;1534;-59
2023/10/08 09:38:09;;;;;;;;;;;;;;;21.29;47.06;96513.06;10437885;28;2646;-59
2023/10/08 09:43:10;;;;;;;;;;;;;;;21.27;46.85;96517.81;10440299;28;4745;-59
2023/10/08 09:48:13;;;;;;;;;;;;;;;21.28;47.01;96527.28;10444328;28;1926;-59
2023/10/08 09:53:16;;;;;;;;;;;;;;;21.28;46.55;96536.00;10440140;28;1843;-58
2023/10/08 09:58:16;;;;;;;;;;;;;;;21.29;46.85;96539.44;10438167;28;1998;-58
2023/10/08 10:03:18;;;;;;;;;;;;;;;21.29;46.83;96555.25;10443541;28;1919;-58
2023/10/08 10:08:20;;;;;;;;;;;;;;;21.28;46.54;96551.03;10439365;28;1936;-58
2023/10/08 10:13:21;;;;;;;;;;;;;;;21.25;45.96;96546.25;10437538;28;1915;-58
2023/10/08 10:18:31;;;;;;;;;;;;;;;21.26;46.44;96553.13;10441630;28;1978;-58
2023/10/08 10:23:39;;;;;;;;;;;;;;;21.27;46.61;96554.72;10437422;28;1478;-55
2023/10/08 10:28:39;;;;;;;;;;;;;;;21.30;46.54;96567.38;10431880;28;1557;-56
2023/10/08 10:33:40;;;;;;;;;;;;;;;21.28;46.84;96574.75;10445633;28;1515;-59
2023/10/08 10:38:42;;;;;;;;;;;;;;;21.28;47.61;96572.91;10437682;28;2614;-58
2023/10/08 10:43:52;;;;;;;;;;;;;;;21.31;47.99;96571.63;10439191;28;4758;-57
2023/10/08 10:49:17;;;;;;;;;;;;;;;21.30;48.27;96559.47;10438854;28;1555;-55
2023/10/08 10:54:23;;;;;;;;;;;;;;;21.30;48.29;96549.72;10441543;28;1883;-56
2023/10/08 10:59:27;;;;;;;;;;;;;;;21.30;48.54;96551.56;10442987;28;1958;-57
2023/10/08 11:04:30;;;;;;;;;;;;;;;21.32;48.69;96552.09;10436000;28;1507;-55
2023/10/08 11:09:37;;;;;;;;;;;;;;;21.30;48.73;96533.91;10441151;28;1777;-57
2023/10/08 11:14:46;;;;;;;;;;;;;;;21.30;48.77;96525.19;10435641;28;1478;-55
2023/10/08 11:19:46;;;;;;;;;;;;;;;21.31;48.98;96524.16;10440586;28;1980;-57
2023/10/08 11:24:53;;;;;;;;;;;;;;;21.30;48.78;96533.09;10441513;28;2910;-59
2023/10/08 11:29:57;;;;;;;;;;;;;;;21.31;49.39;96545.25;10443634;28;1435;-59
2023/10/08 11:35:01;;;;;;;;;;;;;;;21.31;49.09;96532.06;10440417;28;1833;-57
2023/10/08 11:40:13;;;;;;;;;;;;;;;21.31;49.75;96524.91;10431384;28;1979;-57
2023/10/08 11:45:23;;;;;;;;;;;;;;;21.32;50.26;96518.59;10438194;28;1459;-58
2023/10/08 11:50:34;;;;;;;;;;;;;;;21.35;50.67;96514.66;10438048;28;1778;-54
2023/10/08 11:55:36;;;;;;;;;;;;;;;21.38;51.99;96516.75;10441639;28;1914;-57
2023/10/08 12:00:46;;;;;;;;;;;;;;;21.39;52.93;96516.50;10434856;28;1411;-55
2023/10/08 12:05:49;;;;;;;;;;;;;;;21.42;53.99;96521.25;10437844;28;2787;-57
2023/10/08 12:10:53;;;;;;;;;;;;;;;21.41;53.79;96524.16;10440448;28;1619;-56
2023/10/08 12:16:06;;;;;;;;;;;;;;;21.42;54.82;96518.63;10432892;28;1914;-57
2023/10/08 12:21:15;;;;;;;;;;;;;;;21.43;55.64;96522.06;10444502;28;1715;-55
2023/10/08 12:26:21;;;;;;;;;;;;;;;21.41;55.71;96524.16;10443528;28;1535;-58
2023/10/08 12:31:24;;;;;;;;;;;;;;;21.40;55.65;96517.28;10443851;28;1571;-57
2023/10/08 12:36:26;;;;;;;;;;;;;;;21.41;54.41;96532.09;10446134;28;1927;-55
2023/10/08 12:41:29;;;;;;;;;;;;;;;21.38;55.88;96524.69;10445207;28;4638;-58
2023/10/08 12:46:31;;;;;;;;;;;;;;;21.38;54.84;96519.41;10443340;28;1988;-58
2023/10/08 12:51:35;;;;;;;;;;;;;;;21.37;56.22;96515.19;10445316;28;2778;-58
2023/10/08 12:56:38;;;;;;;;;;;;;;;21.36;55.87;96481.94;10440252;28;1991;-58
2023/10/08 13:01:41;;;;;;;;;;;;;;;21.34;55.27;96484.06;10444514;28;1767;-58
2023/10/08 13:06:45;;;;;;;;;;;;;;;21.33;55.53;96474.56;10449437;28;1781;-58
2023/10/08 13:11:45;;;;;;;;;;;;;;;21.31;56.67;96474.81;10444395;28;1929;-56
2023/10/08 13:16:49;;;;;;;;;;;;;;;21.31;56.71;96493.28;10444291;28;1910;-58
2023/10/08 13:21:52;;;;;;;;;;;;;;;21.30;56.84;96494.34;10442813;28;1727;-58
2023/10/08 13:26:52;;;;;;;;;;;;;;;21.30;57.21;96480.34;10445810;28;1506;-58
2023/10/08 13:31:54;;;;;;;;;;;;;;;21.29;56.46;96486.69;10445825;28;1487;-58
2023/10/08 13:36:54;;;;;;;;;;;;;;;21.28;56.84;96485.09;10445521;28;2737;-58
2023/10/08 13:41:56;;;;;;;;;;;;;;;21.28;56.90;96517.53;10439809;28;4637;-58
2023/10/08 13:46:58;;;;;;;;;;;;;;;21.29;57.42;96513.84;10447642;28;1665;-58
2023/10/08 13:51:59;;;;;;;;;;;;;;;21.29;57.04;96515.69;10446446;28;1724;-52
2023/10/08 13:57:01;;;;;;;;;;;;;;;21.29;57.26;96515.69;10445382;28;1918;-57
2023/10/08 14:02:14;;;;;;;;;;;;;;;21.29;57.92;96510.44;10442371;28;1888;-57
2023/10/08 14:07:17;;;;;;;;;;;;;;;21.27;57.22;96507.25;10435360;28;2057;-57
2023/10/08 14:12:17;;;;;;;;;;;;;;;21.26;57.10;96509.09;10443455;28;1936;-58
2023/10/08 14:17:39;;;;;;;;;;;;;;;21.27;57.44;96509.91;10435314;28;2004;-57
2023/10/08 14:22:38;;;;;;;;;;;;;;;21.28;57.53;96503.56;10435739;28;2812;-58
2023/10/08 14:27:43;;;;;;;;;;;;;;;21.27;58.46;96496.72;10438036;28;1972;-58
2023/10/08 14:32:46;;;;;;;;;;;;;;;21.27;58.08;96492.22;10438446;28;1959;-56
2023/10/08 14:43:11;;;;;;;;;;;;;;;21.26;58.08;96488.00;10431587;28;4525;-58
2023/10/08 14:48:13;;;;;;;;;;;;;;;21.25;58.17;96490.88;10436810;28;1980;-56
2023/10/08 14:53:13;;;;;;;;;;;;;;;21.23;58.43;96496.41;10429380;28;2115;-56
2023/10/08 14:58:14;;;;;;;;;;;;;;;21.24;57.37;96502.50;10434227;28;2016;-57
2023/10/08 15:03:14;;;;;;;;;;;;;;;21.22;57.99;96499.31;10437338;28;1952;-57
2023/10/08 15:08:14;;;;;;;;;;;;;;;21.22;58.20;96501.94;10434016;28;1940;-57
2023/10/08 15:13:15;;;;;;;;;;;;;;;21.22;58.09;96504.59;10433308;28;1963;-56
2023/10/08 15:18:18;;;;;;;;;;;;;;;21.20;57.99;96501.41;10432550;28;1987;-58
2023/10/08 15:23:21;;;;;;;;;;;;;;;21.19;58.41;96505.09;10432002;28;2519;-57
2023/10/08 15:28:21;;;;;;;;;;;;;;;21.18;58.17;96514.06;10433090;28;2148;-58
2023/10/08 15:33:21;;;;;;;;;;;;;;;21.18;58.20;96512.22;10432162;28;2180;-58
2023/10/08 15:38:22;;;;;;;;;;;;;;;21.17;58.04;96512.47;10430708;28;2335;-57
2023/10/08 15:43:26;;;;;;;;;;;;;;;21.17;58.21;96507.19;10435966;28;4696;-55
2023/10/08 15:48:27;;;;;;;;;;;;;;;21.15;58.10;96507.47;10435934;28;1905;-57
2023/10/08 15:53:27;;;;;;;;;;;;;;;21.15;58.33;96504.81;10436066;28;1921;-57
2023/10/08 15:58:27;;;;;;;;;;;;;;;21.14;58.00;96507.72;10439708;28;1906;-57
2023/10/08 16:03:28;;;;;;;;;;;;;;;21.13;58.44;96506.13;10442205;28;4247;-57
2023/10/08 16:08:28;;;;;;;;;;;;;;;21.12;58.20;96505.34;10441515;28;1957;-57
2023/10/08 16:13:28;;;;;;;;;;;;;;;21.10;56.97;96512.75;10438715;28;1826;-56
2023/10/08 16:18:28;;;;;;;;;;;;;;;21.06;57.15;96509.03;10439878;28;1969;-56
2023/10/08 16:23:29;;;;;;;;;;;;;;;21.03;56.66;96502.44;10443275;28;2052;-56
2023/10/08 16:28:30;;;;;;;;;;;;;;;20.99;56.32;96501.31;10442575;28;1998;-56
2023/10/08 16:33:30;;;;;;;;;;;;;;;20.96;56.20;96509.72;10437015;28;1894;-57
2023/10/08 16:38:31;;;;;;;;;;;;;;;20.94;55.90;96509.19;10436383;28;2117;-56
2023/10/08 16:43:31;;;;;;;;;;;;;;;20.90;55.59;96513.41;10435372;28;4604;-57
2023/10/08 16:48:32;;;;;;;;;;;;;;;20.89;55.80;96519.75;10437243;28;2096;-56
2023/10/08 16:53:32;;;;;;;;;;;;;;;20.88;55.70;96518.13;10438253;28;2479;-56
2023/10/08 16:58:32;;;;;;;;;;;;;;;20.86;55.60;96522.88;10434544;28;1911;-56
2023/10/08 17:03:33;;;;;;;;;;;;;;;20.87;55.92;96526.31;10432216;28;1866;-55
2023/10/08 17:08:33;;;;;;;;;;;;;;;20.84;54.99;96529.44;10432242;28;1954;-56
2023/10/08 17:13:33;;;;;;;;;;;;;;;20.80;54.29;96531.00;10436668;28;1952;-54
2023/10/08 17:18:34;;;;;;;;;;;;;;;20.74;52.89;96527.56;10440675;28;1967;-56
2023/10/08 17:23:34;;;;;;;;;;;;;;;20.70;53.59;96525.69;10438058;28;1902;-56
2023/10/08 17:28:35;;;;;;;;;;;;;;;20.71;53.85;96529.91;10435336;28;1946;-56
2023/10/08 17:33:35;;;;;;;;;;;;;;;20.70;53.43;96531.75;10440906;28;1842;-56
2023/10/08 17:38:36;;;;;;;;;;;;;;;20.67;53.62;96528.84;10436515;28;2702;-57
2023/10/08 17:43:36;;;;;;;;;;;;;;;20.67;53.24;96516.44;10436330;28;4797;-56
2023/10/08 17:48:36;;;;;;;;;;;;;;;20.65;52.99;96509.88;10433839;28;1930;-54
2023/10/08 17:53:37;;;;;;;;;;;;;;;20.63;52.08;96507.47;10435924;28;1886;-56
2023/10/08 17:58:37;;;;;;;;;;;;;;;20.63;52.69;96506.69;10436702;28;1965;-56
2023/10/08 18:03:38;;;;;;;;;;;;;;;20.64;52.71;96516.16;10438239;28;1963;-57
2023/10/08 18:08:39;;;;;;;;;;;;;;;20.59;52.33;96511.66;10434092;28;1870;-57
2023/10/08 18:13:42;;;;;;;;;;;;;;;20.58;51.43;96518.00;10432369;28;1957;-56
2023/10/08 18:18:43;;;;;;;;;;;;;;;20.54;51.22;96513.47;10439735;28;1910;-57
2023/10/08 18:23:45;;;;;;;;;;;;;;;20.54;51.48;96503.75;10433641;28;2396;-57
2023/10/08 18:28:45;;;;;;;;;;;;;;;20.52;50.91;96505.84;10437146;28;1837;-57
2023/10/08 18:33:47;;;;;;;;;;;;;;;20.52;51.33;96495.31;10439418;28;1899;-58
2023/10/08 18:38:47;;;;;;;;;;;;;;;20.50;50.82;96486.88;10439261;28;1927;-57
2023/10/08 18:43:48;;;;;;;;;;;;;;;20.50;51.03;96476.34;10433903;28;4752;-57
2023/10/08 18:48:48;;;;;;;;;;;;;;;20.51;51.36;96470.00;10435638;28;1941;-58
2023/10/08 18:53:50;;;;;;;;;;;;;;;20.52;51.58;96462.91;10430311;28;1966;-58
2023/10/08 18:58:51;;;;;;;;;;;;;;;20.52;51.17;96468.97;10435723;28;2002;-58
2023/10/08 19:03:52;;;;;;;;;;;;;;;20.52;50.74;96474.22;10433337;28;2058;-57
2023/10/08 19:08:52;;;;;;;;;;;;;;;20.60;51.86;96462.41;10436036;28;2789;-58
2023/10/08 19:13:53;;;;;;;;;;;;;;;20.70;53.35;96494.88;10438975;28;1522;-58
2023/10/08 19:18:53;;;;;;;;;;;;;;;20.81;53.79;96490.44;10442459;28;1918;-58
2023/10/08 19:23:54;;;;;;;;;;;;;;;20.92;54.23;96494.69;10436976;28;1716;-58
2023/10/08 19:28:54;;;;;;;;;;;;;;;20.99;54.73;96489.97;10435231;28;1677;-58
2023/10/08 19:33:54;;;;;;;;;;;;;;;21.06;54.86;96504.53;10438605;28;1530;-58
2023/10/08 19:38:55;;;;;;;;;;;;;;;21.13;55.17;96508.75;10437323;28;1910;-58
2023/10/08 19:43:56;;;;;;;;;;;;;;;21.16;55.00;96516.16;10437319;28;4763;-59
2023/10/08 19:48:57;;;;;;;;;;;;;;;21.20;54.72;96511.97;10440664;28;1435;-58
2023/10/08 19:53:59;;;;;;;;;;;;;;;21.21;54.42;96508.25;10435052;28;1615;-58
2023/10/08 19:58:59;;;;;;;;;;;;;;;21.22;54.89;96517.78;10440021;28;2868;-58
2023/10/08 20:03:59;;;;;;;;;;;;;;;21.24;54.66;96513.03;10436721;28;1727;-58
2023/10/08 20:09:01;;;;;;;;;;;;;;;21.24;54.32;96513.84;10438067;28;1490;-57
2023/10/08 20:14:01;;;;;;;;;;;;;;;21.26;54.28;96517.00;10436818;28;1886;-58
2023/10/08 20:19:05;;;;;;;;;;;;;;;21.27;54.01;96512.53;10435888;28;1959;-58
2023/10/08 20:24:06;;;;;;;;;;;;;;;21.29;53.98;96516.47;10438176;28;1435;-57
2023/10/08 20:29:07;;;;;;;;;;;;;;;21.28;54.28;96517.53;10436933;28;1679;-57
2023/10/08 20:34:07;;;;;;;;;;;;;;;21.28;54.43;96503.56;10438172;28;1479;-57
2023/10/08 20:39:10;;;;;;;;;;;;;;;21.30;53.84;96501.44;10444205;28;1875;-58
2023/10/08 20:44:11;;;;;;;;;;;;;;;21.29;53.94;96505.16;10445047;28;4737;-57
2023/10/08 20:49:12;;;;;;;;;;;;;;;21.30;53.91;96496.16;10443393;28;1502;-59
2023/10/08 20:54:14;;;;;;;;;;;;;;;21.29;53.55;96484.81;10447080;28;1496;-58
2023/10/08 20:59:14;;;;;;;;;;;;;;;21.30;53.27;96480.34;10443874;28;2512;-59
2023/10/08 21:04:14;;;;;;;;;;;;;;;21.29;53.72;96474.28;10444016;28;1855;-59
2023/10/08 21:09:15;;;;;;;;;;;;;;;21.28;53.14;96475.34;10437295;28;1953;-58
2023/10/08 21:14:15;;;;;;;;;;;;;;;21.25;53.54;96467.94;10441832;28;1945;-57
2023/10/08 21:19:16;;;;;;;;;;;;;;;21.24;53.14;96460.28;10445247;28;1930;-59
2023/10/08 21:24:16;;;;;;;;;;;;;;;21.21;53.42;96452.91;10440094;28;2024;-58
2023/10/08 21:29:18;;;;;;;;;;;;;;;21.17;53.26;96450.00;10439832;28;1890;-59
2023/10/08 21:34:18;;;;;;;;;;;;;;;21.14;53.70;96455.00;10434384;28;1872;-59
2023/10/08 21:39:20;;;;;;;;;;;;;;;21.12;53.53;96441.28;10438892;28;1958;-59
2023/10/08 21:44:20;;;;;;;;;;;;;;;21.08;53.85;96431.25;10433724;28;4752;-59
2023/10/08 21:49:20;;;;;;;;;;;;;;;21.08;53.81;96427.06;10435578;28;2095;-59
2023/10/08 21:54:21;;;;;;;;;;;;;;;21.07;54.06;96423.63;10436381;28;1921;-59
2023/10/08 21:59:21;;;;;;;;;;;;;;;21.05;53.56;96420.44;10436615;28;1906;-59
2023/10/08 22:04:22;;;;;;;;;;;;;;;21.05;53.62;96425.72;10436995;28;2025;-59
2023/10/08 22:09:28;;;;;;;;;;;;;;;21.03;53.92;96417.28;10436480;28;1878;-59
2023/10/08 22:14:32;;;;;;;;;;;;;;;21.02;53.37;96415.69;10438383;28;1920;-59
2023/10/08 22:19:42;;;;;;;;;;;;;;;21.01;53.87;96404.34;10438868;28;1914;-59
2023/10/08 22:24:44;;;;;;;;;;;;;;;21.01;53.57;96406.97;10437318;28;1870;-59
2023/10/08 22:29:47;;;;;;;;;;;;;;;21.00;53.97;96409.84;10441012;28;2986;-58
2023/10/08 22:34:55;;;;;;;;;;;;;;;21.00;53.69;96412.47;10438326;28;1940;-59
2023/10/08 22:39:55;;;;;;;;;;;;;;;20.99;53.92;96416.97;10434121;28;1973;-59
2023/10/08 22:45:03;;;;;;;;;;;;;;;20.98;53.85;96415.38;10433638;28;4685;-59
2023/10/08 22:50:17;;;;;;;;;;;;;;;20.99;53.82;96411.72;10435220;28;1878;-59
2023/10/08 22:55:19;;;;;;;;;;;;;;;20.97;53.77;96405.91;10435629;28;1900;-59
2023/10/08 23:00:26;;;;;;;;;;;;;;;20.98;53.17;96393.50;10437054;28;1976;-59
2023/10/08 23:05:26;;;;;;;;;;;;;;;20.97;53.38;96381.38;10431285;28;1937;-59
2023/10/08 23:10:26;;;;;;;;;;;;;;;20.96;53.31;96385.06;10434622;28;1979;-59
2023/10/08 23:15:26;;;;;;;;;;;;;;;20.96;53.25;96380.59;10437844;28;2635;-59
2023/10/08 23:20:27;;;;;;;;;;;;;;;20.95;53.26;96379.03;10431564;28;1968;-59
2023/10/08 23:25:29;;;;;;;;;;;;;;;20.96;53.62;96380.59;10435106;28;1855;-59
2023/10/08 23:30:29;;;;;;;;;;;;;;;20.96;53.26;96374.53;10434708;28;1999;-59
2023/10/08 23:35:29;;;;;;;;;;;;;;;20.95;53.33;96368.47;10433495;28;2076;-58
2023/10/08 23:40:30;;;;;;;;;;;;;;;20.95;53.24;96365.84;10433329;28;1922;-59
2023/10/08 23:45:31;;;;;;;;;;;;;;;20.94;53.12;96364.25;10433732;28;1904;-58
2023/10/08 23:50:32;;;;;;;;;;;;;;;20.94;53.08;96364.25;10435934;28;1945;-59
2023/10/08 23:55:32;;;;;;;;;;;;;;;20.94;53.30;96356.34;10438624;28;1858;-59
